Time;durP1;ratioP1;P1;durP2;ratioP2;P2;SDS_P1;SDS_P2;PMS_P1;PMS_P2;Temp;Humidity;BMP_temperature;BMP_pressure;BME280_temperature;BME280_humidity;BME280_pressure;Samples;Min_cycle;Max_cycle;Signal;HPM_P1;HPM_P2
2021/08/27 00:00:55;;;;;;;3.40;1.97;;;;;;;10.09;95.71;101618.88;2099502;28;20032;-61
2021/08/27 00:01:55;;;;;;;6.67;1.50;;;;;;;10.07;95.01;101615.44;2099545;28;20032;-61
2021/08/27 00:02:55;;;;;;;3.37;1.00;;;;;;;10.07;94.81;101623.25;2099605;28;20098;-60
2021/08/27 00:03:56;;;;;;;4.63;1.17;;;;;;;10.07;95.23;101623.25;2099480;28;20029;-61
2021/08/27 00:04:56;;;;;;;2.00;0.90;;;;;;;10.05;95.28;101623.31;2090610;28;20024;-61
2021/08/27 00:05:56;;;;;;;2.90;1.40;;;;;;;10.03;95.29;101623.34;2090657;28;20078;-61
2021/08/27 00:06:57;;;;;;;6.53;1.43;;;;;;;10.01;95.55;101622.53;2099462;28;20028;-61
2021/08/27 00:07:57;;;;;;;3.57;1.07;;;;;;;10.02;95.50;101618.16;2099488;28;20020;-62
2021/08/27 00:08:58;;;;;;;6.03;1.30;;;;;;;10.02;95.55;101629.47;2099487;28;20154;-60
2021/08/27 00:09:58;;;;;;;3.85;1.00;;;;;;;10.10;95.29;101625.78;2099479;28;20021;-61
2021/08/27 00:10:58;;;;;;;6.43;1.40;;;;;;;10.09;95.49;101624.94;2090602;28;20506;-60
2021/08/27 00:11:59;;;;;;;2.13;1.60;;;;;;;10.09;95.28;101608.44;2090641;28;20025;-60
2021/08/27 00:12:59;;;;;;;8.23;1.97;;;;;;;10.07;95.48;101620.66;2099424;28;20028;-59
2021/08/27 00:13:59;;;;;;;3.00;1.00;;;;;;;10.10;95.52;101625.78;2099515;28;20062;-60
2021/08/27 00:14:59;;;;;;;3.40;1.00;;;;;;;10.14;95.39;101616.97;2099363;28;20537;-61
2021/08/27 00:16:00;;;;;;;1.23;0.93;;;;;;;10.13;95.32;101626.53;2099435;28;20044;-61
2021/08/27 00:17:00;;;;;;;3.30;1.00;;;;;;;10.15;95.61;101616.06;2099347;28;20111;-60
2021/08/27 00:18:00;;;;;;;3.87;1.37;;;;;;;10.17;95.89;101622.13;2099442;28;20025;-61
2021/08/27 00:19:01;;;;;;;2.77;0.90;;;;;;;10.18;95.86;101622.09;2090525;28;20033;-61
2021/08/27 00:20:03;;;;;;;2.50;1.17;;;;;;;10.22;95.41;101620.22;2090347;28;20479;-61
2021/08/27 00:21:03;;;;;;;5.20;2.00;;;;;;;10.21;95.92;101617.66;2099347;28;20036;-61
2021/08/27 00:22:03;;;;;;;3.40;1.43;;;;;;;10.23;95.63;101616.72;2099421;28;20060;-60
2021/08/27 00:23:05;;;;;;;6.33;1.40;;;;;;;10.26;95.98;101616.63;2099419;28;20474;-60
2021/08/27 00:24:06;;;;;;;3.55;2.80;;;;;;;10.29;95.88;101613.94;2099317;28;20020;-61
2021/08/27 00:25:07;;;;;;;2.63;2.25;;;;;;;10.34;95.72;101613.81;2099340;28;20012;-61
2021/08/27 00:26:07;;;;;;;4.05;1.70;;;;;;;10.37;95.53;101607.66;2099380;28;20024;-61
2021/08/27 00:27:08;;;;;;;8.70;1.70;;;;;;;10.42;95.57;101611.84;2099402;28;20025;-59
2021/08/27 00:28:09;;;;;;;3.90;1.73;;;;;;;10.47;95.91;101606.50;2099356;28;20103;-61
2021/08/27 00:29:09;;;;;;;;;;;;;;;10.49;95.45;101609.91;2099848;28;20024;-60
2021/08/27 00:30:10;;;;;;;4.60;0.87;;;;;;;10.52;95.74;101602.00;2099344;28;19908;-60
2021/08/27 00:31:10;;;;;;;3.25;1.10;;;;;;;10.52;95.52;101607.22;2099307;28;20285;-61
2021/08/27 00:32:11;;;;;;;2.87;1.33;;;;;;;10.54;95.76;101608.03;2099254;28;20054;-61
2021/08/27 00:33:11;;;;;;;2.60;0.97;;;;;;;10.58;95.37;101606.19;2099289;28;20074;-61
2021/08/27 00:34:11;;;;;;;2.85;2.13;;;;;;;10.59;95.68;101601.81;2099193;28;20667;-61
2021/08/27 00:35:12;;;;;;;4.47;1.40;;;;;;;10.61;95.96;101606.06;2099286;28;20124;-61
2021/08/27 00:36:12;;;;;;;3.97;1.07;;;;;;;10.62;95.52;101610.41;2099294;28;20091;-60
2021/08/27 00:37:13;;;;;;;3.25;1.08;;;;;;;10.63;95.34;101606.03;2099257;28;20017;-61
2021/08/27 00:38:14;;;;;;;4.80;1.25;;;;;;;10.64;95.57;101605.16;2098419;28;20029;-61
2021/08/27 00:39:14;;;;;;;2.58;0.90;;;;;;;10.66;95.29;101606.81;2099303;28;20449;-60
2021/08/27 00:40:15;;;;;;;6.07;1.67;;;;;;;10.67;95.45;101608.50;2090310;28;20013;-62
2021/08/27 00:41:15;;;;;;;3.40;1.30;;;;;;;10.66;95.43;101608.56;2090458;28;20020;-60
2021/08/27 00:42:16;;;;;;;8.57;1.20;;;;;;;10.66;95.00;101603.31;2099221;28;20119;-61
2021/08/27 00:43:16;;;;;;;4.67;1.70;;;;;;;10.69;95.34;101608.47;2099281;28;20024;-61
2021/08/27 00:44:16;;;;;;;12.67;1.30;;;;;;;10.69;95.20;101600.63;2099235;28;20042;-60
2021/08/27 00:45:17;;;;;;;3.47;1.63;;;;;;;10.72;94.99;101607.50;2099225;28;20314;-61
2021/08/27 00:46:17;;;;;;;8.20;2.13;;;;;;;10.71;94.97;101606.66;2099206;28;20465;-60
2021/08/27 00:47:17;;;;;;;5.47;1.40;;;;;;;10.71;94.71;101606.66;2099244;28;20024;-61
2021/08/27 00:48:18;;;;;;;3.75;1.30;;;;;;;10.72;95.47;101597.94;2099259;28;20024;-60
2021/08/27 00:49:18;;;;;;;2.70;0.93;;;;;;;10.78;94.81;101608.16;2099145;28;20392;-61
2021/08/27 00:50:18;;;;;;;3.93;0.80;;;;;;;10.82;95.17;101609.78;2099310;28;20063;-60
2021/08/27 00:51:19;;;;;;;2.57;0.90;;;;;;;10.85;95.12;101603.63;2099222;28;20016;-61
2021/08/27 00:52:19;;;;;;;3.70;1.20;;;;;;;10.86;95.26;101604.47;2099194;28;20085;-61
2021/08/27 00:53:19;;;;;;;2.42;1.05;;;;;;;10.86;94.53;101604.47;2099207;28;20020;-60
2021/08/27 00:54:20;;;;;;;3.83;1.10;;;;;;;10.85;94.57;101603.63;2090219;28;20020;-60
2021/08/27 00:55:20;;;;;;;2.55;1.20;;;;;;;10.84;94.96;101601.91;2090304;28;20110;-60
2021/08/27 00:56:21;;;;;;;4.53;1.00;;;;;;;10.82;94.15;101599.34;2099080;28;20058;-61
2021/08/27 00:57:22;;;;;;;3.57;0.97;;;;;;;10.84;94.54;101601.06;2099285;28;20354;-61
2021/08/27 00:58:23;;;;;;;1.65;0.75;;;;;;;10.82;94.52;101599.34;2099163;28;20480;-60
2021/08/27 00:59:23;;;;;;;3.33;0.80;;;;;;;10.84;94.58;101596.69;2099136;28;20103;-60
2021/08/27 01:00:23;;;;;;;3.63;0.97;;;;;;;10.81;94.36;101592.41;2099094;28;20418;-60
2021/08/27 01:01:24;;;;;;;3.87;1.60;;;;;;;10.80;94.28;101598.53;2099146;28;20024;-61
2021/08/27 01:02:25;;;;;;;3.00;1.00;;;;;;;10.77;94.45;101596.03;2099047;28;20012;-60
2021/08/27 01:03:25;;;;;;;4.05;1.17;;;;;;;10.75;94.03;101590.00;2099081;28;20020;-61
2021/08/27 01:04:25;;;;;;;1.83;1.40;;;;;;;10.74;94.56;101596.13;2099042;28;20470;-61
2021/08/27 01:05:26;;;;;;;7.23;2.87;;;;;;;10.69;93.96;101588.44;2090143;28;20527;-62
2021/08/27 01:06:38;;;;;;;4.87;3.03;;;;;;;10.66;94.03;101592.88;2090246;28;20039;-61
2021/08/27 01:07:50;;;;;;;15.18;3.58;;;;;;;10.63;93.97;101592.97;2090127;28;20021;-60
2021/08/27 01:09:00;;;;;;;3.35;1.92;;;;;;;10.62;94.45;101588.66;2083264;28;20116;-60
2021/08/27 01:10:13;;;;;;;5.28;2.03;;;;;;;10.58;94.16;101590.53;2091372;28;20501;-60
2021/08/27 01:11:45;;;;;;;5.75;2.13;;;;;;;10.58;94.54;101590.53;2098963;28;20376;-61
2021/08/27 01:12:54;;;;;;;;;;;;;;;10.59;94.21;101586.13;2099357;28;20536;-60
2021/08/27 01:14:00;;;;;;;3.25;1.25;;;;;;;10.59;94.11;101596.59;2099003;28;19912;-59
2021/08/27 01:15:29;;;;;;;5.68;0.98;;;;;;;10.56;94.79;101593.19;2098793;28;20032;-60
2021/08/27 01:16:41;;;;;;;1.30;0.85;;;;;;;10.54;94.23;101600.19;2098986;28;20147;-61
2021/08/27 01:17:46;;;;;;;4.53;1.50;;;;;;;10.52;94.53;101596.78;2098978;28;20024;-60
2021/08/27 01:19:19;;;;;;;6.93;2.22;;;;;;;10.52;94.47;101594.19;2098877;28;20078;-60
2021/08/27 01:20:36;;;;;;;4.05;2.70;;;;;;;10.50;94.15;101598.56;2098926;28;20052;-60
2021/08/27 01:22:07;;;;;;;8.23;4.18;;;;;;;10.48;93.98;101602.13;2098773;28;20388;-61
2021/08/27 01:23:43;;;;;;;4.63;2.55;;;;;;;10.45;94.26;101605.69;2098897;28;20492;-61
2021/08/27 01:24:47;;;;;;;5.38;1.52;;;;;;;10.40;94.19;101599.72;2089870;28;20024;-60
2021/08/27 01:25:53;;;;;;;3.90;1.40;;;;;;;10.38;94.39;101601.53;2090441;28;20021;-60
2021/08/27 01:26:56;;;;;;;3.83;1.30;;;;;;;10.35;94.02;101599.00;2098941;28;20024;-60
2021/08/27 01:27:57;;;;;;;4.53;1.70;;;;;;;10.34;94.46;101598.16;2098844;28;20039;-61
2021/08/27 01:28:58;;;;;;;4.25;2.25;;;;;;;10.35;94.75;101604.22;2098831;28;20033;-60
2021/08/27 01:30:09;;;;;;;3.23;3.03;;;;;;;10.34;94.25;101607.72;2098899;28;20028;-60
2021/08/27 01:31:32;;;;;;;4.50;3.13;;;;;;;10.31;94.66;101604.28;2098730;28;20289;-59
2021/08/27 01:32:48;;;;;;;5.38;2.53;;;;;;;10.31;94.54;101603.47;2098677;28;20073;-61
2021/08/27 01:34:15;;;;;;;3.22;2.30;;;;;;;10.28;94.77;101599.19;2098717;28;20028;-61
2021/08/27 01:35:15;;;;;;;7.15;1.52;;;;;;;10.26;94.47;101590.53;2098797;28;20516;-60
2021/08/27 01:36:17;;;;;;;4.57;1.17;;;;;;;10.26;94.99;101598.38;2098845;28;20028;-60
2021/08/27 01:37:22;;;;;;;4.43;1.58;;;;;;;10.25;94.78;101596.66;2098661;28;20024;-61
2021/08/27 01:38:31;;;;;;;6.95;2.78;;;;;;;10.25;94.41;101593.19;2098662;28;20028;-61
2021/08/27 01:39:37;;;;;;;6.72;2.85;;;;;;;10.21;94.61;101597.66;2098750;28;20107;-60
2021/08/27 01:40:40;;;;;;;3.20;1.48;;;;;;;10.21;94.40;101592.44;2098702;28;20021;-61
2021/08/27 01:41:42;;;;;;;5.00;2.28;;;;;;;10.21;94.89;101595.03;2098740;28;20033;-60
2021/08/27 01:42:45;;;;;;;6.00;1.83;;;;;;;10.19;95.23;101594.22;2098733;28;20029;-62
2021/08/27 01:43:50;;;;;;;2.72;1.45;;;;;;;10.17;94.71;101593.44;2098752;28;20024;-60
2021/08/27 01:44:53;;;;;;;2.88;1.45;;;;;;;10.17;95.02;101596.03;2098666;28;20016;-60
2021/08/27 01:45:58;;;;;;;4.45;2.70;;;;;;;10.15;95.09;101597.81;2098832;28;20016;-61
2021/08/27 01:47:00;;;;;;;5.93;1.30;;;;;;;10.13;94.76;101599.63;2098677;28;20048;-60
2021/08/27 01:48:05;;;;;;;3.63;1.85;;;;;;;10.17;94.97;101596.03;2098737;28;20024;-61
2021/08/27 01:49:07;;;;;;;3.45;1.40;;;;;;;10.18;95.41;101598.59;2098697;28;20029;-61
2021/08/27 01:50:08;;;;;;;3.95;1.40;;;;;;;10.20;94.72;101595.94;2098732;28;20028;-60
2021/08/27 01:51:12;;;;;;;3.72;1.42;;;;;;;10.20;95.04;101600.31;2089790;28;20028;-61
2021/08/27 01:52:13;;;;;;;4.00;1.10;;;;;;;10.18;95.17;101590.78;2090282;28;20021;-61
2021/08/27 01:53:14;;;;;;;2.55;1.08;;;;;;;10.16;95.16;101599.53;2098696;28;20119;-60
2021/08/27 01:54:15;;;;;;;7.10;1.38;;;;;;;10.12;95.15;101595.28;2098649;28;20024;-60
2021/08/27 01:55:16;;;;;;;5.47;1.90;;;;;;;10.09;95.18;101598.84;2089645;28;20118;-61
2021/08/27 01:56:17;;;;;;;2.33;1.25;;;;;;;10.06;95.26;101598.91;2089866;28;20025;-60
2021/08/27 01:57:17;;;;;;;2.33;1.40;;;;;;;10.05;95.25;101598.09;2098454;28;20147;-61
2021/08/27 01:58:18;;;;;;;6.97;2.03;;;;;;;10.04;95.27;101596.38;2098695;28;20099;-60
2021/08/27 01:59:19;;;;;;;2.53;1.02;;;;;;;10.07;94.84;101597.19;2098661;28;20055;-61
2021/08/27 02:00:21;;;;;;;4.22;1.77;;;;;;;10.09;95.12;101600.63;2098677;28;20020;-61
2021/08/27 02:01:24;;;;;;;4.88;1.48;;;;;;;10.04;94.97;101601.59;2089682;28;20025;-60
2021/08/27 02:02:26;;;;;;;7.97;2.42;;;;;;;10.02;95.49;101603.38;2090060;28;20099;-60
2021/08/27 02:03:29;;;;;;;5.10;2.05;;;;;;;10.02;95.52;101598.16;2098578;28;20104;-61
2021/08/27 02:04:31;;;;;;;3.42;2.15;;;;;;;10.03;94.98;101604.25;2098574;28;20537;-60
2021/08/27 02:05:32;;;;;;;4.38;2.63;;;;;;;10.03;95.26;101609.47;2098640;28;20029;-60
2021/08/27 02:06:34;;;;;;;3.10;1.95;;;;;;;10.06;95.59;101614.56;2098614;28;20024;-61
2021/08/27 02:07:36;;;;;;;4.10;2.28;;;;;;;10.11;95.78;101607.50;2098567;28;20040;-60
2021/08/27 02:08:37;;;;;;;3.50;1.70;;;;;;;10.13;95.60;101605.69;2098500;28;20031;-60
2021/08/27 02:09:39;;;;;;;9.13;2.45;;;;;;;10.15;95.67;101610.84;2098494;28;20416;-60
2021/08/27 02:10:39;;;;;;;3.15;2.10;;;;;;;10.12;95.77;101603.13;2098557;28;20036;-60
2021/08/27 02:11:41;;;;;;;4.57;2.27;;;;;;;10.13;95.96;101610.06;2098595;28;20024;-60
2021/08/27 02:12:41;;;;;;;;;;;;;;;10.13;95.89;101610.06;2099005;28;20504;-60
2021/08/27 02:13:43;;;;;;;6.57;2.60;;;;;;;10.14;95.67;101612.63;2098581;28;19934;-60
2021/08/27 02:14:45;;;;;;;3.42;2.15;;;;;;;10.16;95.85;101609.94;2098317;28;20028;-60
2021/08/27 02:15:48;;;;;;;4.70;2.55;;;;;;;10.13;95.35;101615.28;2098423;28;20486;-61
2021/08/27 02:16:49;;;;;;;9.02;3.30;;;;;;;10.11;95.93;101607.50;2089561;28;20461;-60
2021/08/27 02:17:50;;;;;;;5.70;1.87;;;;;;;10.10;95.93;101611.00;2089563;28;20053;-60
2021/08/27 02:18:51;;;;;;;7.25;3.42;;;;;;;10.10;95.57;101611.00;2098400;28;20021;-60
2021/08/27 02:19:52;;;;;;;5.15;3.08;;;;;;;10.09;95.51;101621.47;2098568;28;20448;-60
2021/08/27 02:20:53;;;;;;;4.65;3.60;;;;;;;10.10;95.48;101615.34;2089524;28;20056;-59
2021/08/27 02:21:56;;;;;;;6.78;3.83;;;;;;;10.12;95.83;101613.53;2089739;28;20033;-59
2021/08/27 02:23:00;;;;;;;6.25;3.95;;;;;;;10.11;95.49;101622.28;2098486;28;20024;-60
2021/08/27 02:24:06;;;;;;;8.10;3.55;;;;;;;10.11;95.47;101617.94;2098391;28;20024;-60
2021/08/27 02:25:12;;;;;;;5.50;3.75;;;;;;;10.11;95.58;101617.06;2098462;28;20499;-61
2021/08/27 02:26:15;;;;;;;4.40;3.88;;;;;;;10.12;95.85;101616.16;2098487;28;20021;-60
2021/08/27 02:27:16;;;;;;;4.82;4.00;;;;;;;10.13;95.85;101620.50;2098523;28;20032;-60
2021/08/27 02:28:18;;;;;;;7.43;3.70;;;;;;;10.12;95.93;101619.63;2098590;28;20469;-60
2021/08/27 02:29:19;;;;;;;;;;;;;;;10.10;95.62;101616.22;2090004;28;20091;-60
2021/08/27 02:30:21;;;;;;;5.10;3.75;;;;;;;10.10;95.48;101611.00;2089741;28;20407;-60
2021/08/27 02:31:25;;;;;;;4.63;3.72;;;;;;;10.12;96.09;101616.16;2098390;28;20021;-60
2021/08/27 02:32:27;;;;;;;4.25;3.20;;;;;;;10.11;95.74;101611.84;2089556;28;20370;-60
2021/08/27 02:33:30;;;;;;;8.00;2.28;;;;;;;10.14;95.65;101624.81;2081298;28;20095;-61
2021/08/27 02:34:32;;;;;;;5.85;3.55;;;;;;;10.18;95.63;101621.22;2089832;28;20040;-61
2021/08/27 02:35:34;;;;;;;4.93;4.13;;;;;;;10.22;95.74;101620.22;2098387;28;20025;-61
2021/08/27 02:36:34;;;;;;;5.07;3.60;;;;;;;10.20;95.72;101624.66;2098431;28;20039;-61
2021/08/27 02:37:37;;;;;;;5.93;3.65;;;;;;;10.17;95.66;101627.34;2098420;28;20393;-60
2021/08/27 02:38:39;;;;;;;9.07;2.78;;;;;;;10.17;95.65;101629.94;2089422;28;20032;-60
2021/08/27 02:39:39;;;;;;;4.10;2.80;;;;;;;10.16;95.55;101620.38;2081289;28;20025;-60
2021/08/27 02:40:39;;;;;;;2.73;2.53;;;;;;;10.17;95.84;101632.56;2089559;28;20027;-60
2021/08/27 02:41:40;;;;;;;6.77;1.97;;;;;;;10.16;95.77;101625.59;2098329;28;20366;-60
2021/08/27 02:42:41;;;;;;;5.30;2.87;;;;;;;10.12;95.65;101624.84;2098441;28;20028;-60
2021/08/27 02:43:41;;;;;;;13.27;4.05;;;;;;;10.13;95.84;101626.53;2098497;28;20050;-60
2021/08/27 02:44:42;;;;;;;5.10;3.47;;;;;;;10.13;95.65;101630.94;2098364;28;20056;-61
2021/08/27 02:45:42;;;;;;;4.93;3.00;;;;;;;10.11;95.47;101627.50;2098343;28;20024;-60
2021/08/27 02:46:42;;;;;;;9.73;4.07;;;;;;;10.10;95.55;101631.00;2098423;28;20058;-60
2021/08/27 02:47:43;;;;;;;5.33;2.93;;;;;;;10.09;95.44;101624.09;2098389;28;20446;-60
2021/08/27 02:48:43;;;;;;;3.92;2.30;;;;;;;10.08;95.76;101624.97;2098336;28;20024;-60
2021/08/27 02:49:44;;;;;;;9.37;2.50;;;;;;;10.08;95.82;101623.22;2098303;28;20486;-61
2021/08/27 02:50:57;;;;;;;3.57;2.63;;;;;;;10.11;96.11;101622.28;2098363;28;20025;-61
2021/08/27 02:52:11;;;;;;;5.50;2.30;;;;;;;10.14;95.62;101624.81;2089413;28;20028;-61
2021/08/27 02:53:19;;;;;;;2.90;2.55;;;;;;;10.16;96.00;101630.81;2091377;28;20036;-61
2021/08/27 02:54:21;;;;;;;4.47;3.22;;;;;;;10.19;96.29;101628.13;2098319;28;20017;-60
2021/08/27 02:55:35;;;;;;;5.63;2.72;;;;;;;10.20;95.56;101622.03;2098280;28;20497;-60
2021/08/27 02:56:39;;;;;;;7.15;3.55;;;;;;;10.19;96.09;101620.31;2098322;28;20047;-61
2021/08/27 02:57:59;;;;;;;2.78;1.48;;;;;;;10.21;96.13;101617.66;2098156;28;20028;-61
2021/08/27 02:59:02;;;;;;;3.65;2.70;;;;;;;10.23;95.89;101616.72;2098308;28;20028;-60
2021/08/27 03:00:04;;;;;;;4.13;3.25;;;;;;;10.24;96.17;101618.44;2098349;28;20033;-60
2021/08/27 03:01:09;;;;;;;3.80;2.90;;;;;;;10.22;96.05;101617.63;2098357;28;20032;-60
2021/08/27 03:02:15;;;;;;;4.97;2.33;;;;;;;10.26;95.82;101620.97;2100005;28;20023;-60
2021/08/27 03:03:16;;;;;;;6.95;3.20;;;;;;;10.24;96.16;101613.22;2099926;28;20021;-61
2021/08/27 03:04:35;;;;;;;12.95;4.65;;;;;;;10.27;95.87;101618.34;2091050;28;20132;-59
2021/08/27 03:05:42;;;;;;;2.17;1.73;;;;;;;10.28;95.50;101614.84;2093720;28;20250;-60
2021/08/27 03:06:54;;;;;;;5.85;2.70;;;;;;;10.36;96.29;101616.34;2091001;28;20103;-61
2021/08/27 03:08:05;;;;;;;2.28;2.03;;;;;;;10.37;96.23;101618.91;2092894;28;20100;-60
2021/08/27 03:09:09;;;;;;;5.05;2.50;;;;;;;10.41;96.57;101610.09;2099824;28;20039;-61
2021/08/27 03:10:16;;;;;;;6.80;2.45;;;;;;;10.46;96.29;101612.63;2099908;28;20058;-60
2021/08/27 03:11:21;;;;;;;7.28;2.42;;;;;;;10.46;95.77;101612.63;2099981;28;20488;-60
2021/08/27 03:12:31;;;;;;;4.32;1.83;;;;;;;10.51;96.27;101613.31;2091090;28;20017;-61
2021/08/27 03:13:43;;;;;;;2.70;2.17;;;;;;;10.52;96.01;101607.22;2092356;28;20029;-61
2021/08/27 03:14:53;;;;;;;5.43;1.55;;;;;;;10.56;96.25;101616.66;2090823;28;20047;-60
2021/08/27 03:15:59;;;;;;;3.58;1.42;;;;;;;10.59;96.15;101609.63;2092243;28;20065;-60
2021/08/27 03:17:03;;;;;;;3.83;1.38;;;;;;;10.61;96.49;101610.47;2099939;28;20177;-60
2021/08/27 03:18:10;;;;;;;3.58;1.60;;;;;;;10.64;96.11;101615.59;2099769;28;20028;-60
2021/08/27 03:19:26;;;;;;;5.43;2.60;;;;;;;10.66;95.85;101608.56;2099775;28;20020;-60
2021/08/27 03:20:36;;;;;;;5.10;1.90;;;;;;;10.69;96.04;101603.25;2099901;28;20047;-60
2021/08/27 03:21:39;;;;;;;7.20;2.15;;;;;;;10.73;96.14;101609.22;2090815;28;20036;-59
2021/08/27 03:22:47;;;;;;;3.30;2.72;;;;;;;10.80;96.49;101606.38;2091351;28;20037;-60
2021/08/27 03:23:49;;;;;;;5.88;3.50;;;;;;;10.84;96.30;101616.72;2099743;28;20122;-60
2021/08/27 03:24:55;;;;;;;5.65;3.05;;;;;;;10.85;96.28;101608.84;2099800;28;20031;-60
2021/08/27 03:25:58;;;;;;;6.63;2.00;;;;;;;10.91;96.17;101613.88;2099745;28;20386;-59
2021/08/27 03:27:05;;;;;;;3.05;1.73;;;;;;;10.93;96.49;101608.59;2099785;28;20060;-59
2021/08/27 03:28:10;;;;;;;5.57;2.55;;;;;;;10.93;95.85;101612.06;2099788;28;20027;-60
2021/08/27 03:29:15;;;;;;;5.78;2.10;;;;;;;11.00;95.96;101617.09;2099782;28;20020;-60
2021/08/27 03:30:24;;;;;;;5.75;2.30;;;;;;;11.01;95.84;101614.44;2099816;28;20109;-61
2021/08/27 03:31:25;;;;;;;7.18;3.70;;;;;;;11.03;95.57;101612.63;2099796;28;20039;-61
2021/08/27 03:32:27;;;;;;;5.32;3.60;;;;;;;11.07;95.71;101614.25;2099830;28;20073;-59
2021/08/27 03:33:27;;;;;;;4.63;2.20;;;;;;;11.05;95.44;101609.97;2099680;28;20140;-60
2021/08/27 03:34:28;;;;;;;7.90;2.03;;;;;;;11.06;95.72;101606.44;2090852;28;20538;-60
2021/08/27 03:35:29;;;;;;;7.13;2.17;;;;;;;11.06;95.65;101609.91;2090866;28;20058;-60
2021/08/27 03:36:32;;;;;;;4.72;3.05;;;;;;;11.10;95.28;101613.28;2099725;28;20043;-61
2021/08/27 03:37:33;;;;;;;7.43;2.20;;;;;;;11.11;94.76;101614.13;2099575;28;20519;-61
2021/08/27 03:38:35;;;;;;;6.95;3.30;;;;;;;11.11;95.57;101608.91;2099717;28;20111;-61
2021/08/27 03:39:40;;;;;;;9.73;3.17;;;;;;;11.11;95.49;101611.50;2099747;28;20435;-59
2021/08/27 03:40:40;;;;;;;6.47;2.00;;;;;;;11.11;95.14;101616.72;2099661;28;20043;-61
2021/08/27 03:41:42;;;;;;;6.37;3.50;;;;;;;11.10;94.81;101613.28;2099729;28;20103;-60
2021/08/27 03:42:43;;;;;;;4.68;3.35;;;;;;;11.08;94.63;101608.09;2090760;28;20283;-59
2021/08/27 03:43:45;;;;;;;5.55;2.38;;;;;;;11.07;95.19;101605.53;2090864;28;20032;-59
2021/08/27 03:44:46;;;;;;;4.30;1.85;;;;;;;11.05;94.94;101610.81;2099673;28;20104;-59
2021/08/27 03:45:49;;;;;;;7.22;1.90;;;;;;;11.05;94.96;101602.97;2099581;28;20108;-60
2021/08/27 03:46:50;;;;;;;5.95;2.65;;;;;;;11.03;95.08;101606.53;2099638;28;20016;-60
2021/08/27 03:47:51;;;;;;;3.15;1.90;;;;;;;11.01;95.16;101611.81;2099696;28;20086;-60
2021/08/27 03:48:52;;;;;;;1.90;1.00;;;;;;;11.00;95.13;101607.50;2099700;28;20466;-60
2021/08/27 03:49:52;;;;;;;6.15;1.23;;;;;;;10.98;95.16;101604.06;2099762;28;20029;-60
2021/08/27 03:50:54;;;;;;;9.03;2.70;;;;;;;10.97;94.98;101607.59;2099687;28;20024;-59
2021/08/27 03:51:55;;;;;;;5.03;1.85;;;;;;;10.96;94.90;101605.91;2099575;28;20035;-60
2021/08/27 03:52:56;;;;;;;5.45;1.50;;;;;;;10.97;94.92;101607.59;2099667;28;20020;-61
2021/08/27 03:53:57;;;;;;;9.25;1.73;;;;;;;10.98;94.79;101609.28;2099568;28;20078;-60
2021/08/27 03:55:00;;;;;;;6.82;1.65;;;;;;;10.96;94.75;101608.50;2099634;28;20036;-60
2021/08/27 03:56:01;;;;;;;7.95;1.85;;;;;;;10.97;94.93;101607.59;2099753;28;20082;-60
2021/08/27 03:57:03;;;;;;;10.80;3.00;;;;;;;10.98;95.17;101608.47;2099607;28;20021;-61
2021/08/27 03:58:03;;;;;;;3.70;3.00;;;;;;;10.97;95.10;101606.72;2090500;28;20020;-61
2021/08/27 03:59:03;;;;;;;4.20;1.53;;;;;;;10.95;95.29;101606.81;2090799;28;20024;-59
2021/08/27 04:00:06;;;;;;;7.63;2.87;;;;;;;10.96;95.23;101611.13;2099595;28;20103;-59
2021/08/27 04:01:07;;;;;;;6.50;2.38;;;;;;;11.00;95.61;101615.34;2099518;28;20282;-60
2021/08/27 04:02:11;;;;;;;4.05;2.10;;;;;;;10.98;95.35;101604.06;2099559;28;20059;-60
2021/08/27 04:03:12;;;;;;;5.55;1.90;;;;;;;10.99;95.20;101615.38;2099496;28;20012;-59
2021/08/27 04:04:24;;;;;;;7.25;2.85;;;;;;;10.95;95.40;101614.63;2099461;28;20524;-59
2021/08/27 04:05:24;;;;;;;2.85;1.55;;;;;;;10.97;94.84;101618.03;2099524;28;20033;-59
2021/08/27 04:06:25;;;;;;;4.20;3.20;;;;;;;11.00;95.62;101617.09;2090602;28;20021;-60
2021/08/27 04:07:25;;;;;;;5.60;1.47;;;;;;;11.01;95.11;101613.56;2082375;28;20045;-60
2021/08/27 04:08:26;;;;;;;4.10;1.33;;;;;;;11.02;95.25;101616.13;2090561;28;20506;-61
2021/08/27 04:09:28;;;;;;;8.23;2.42;;;;;;;11.06;95.69;101611.69;2099371;28;20024;-62
2021/08/27 04:10:28;;;;;;;7.90;1.92;;;;;;;11.07;95.53;101614.25;2099460;28;20078;-60
2021/08/27 04:11:28;;;;;;;5.53;1.43;;;;;;;11.07;95.42;101616.84;2099456;28;20048;-60
2021/08/27 04:12:29;;;;;;;6.57;2.13;;;;;;;11.10;95.67;101613.28;2099138;28;20032;-60
2021/08/27 04:13:29;;;;;;;4.80;3.53;;;;;;;11.17;95.08;101613.94;2098628;28;20490;-61
2021/08/27 04:14:30;;;;;;;5.28;3.50;;;;;;;11.20;95.68;101608.63;2099542;28;20485;-61
2021/08/27 04:15:30;;;;;;;5.55;2.25;;;;;;;11.19;94.96;101607.75;2099280;28;20618;-61
2021/08/27 04:16:30;;;;;;;7.63;3.80;;;;;;;11.24;95.09;101609.34;2099511;28;20028;-61
2021/08/27 04:17:30;;;;;;;5.27;3.43;;;;;;;11.26;95.29;101599.72;2099409;28;20505;-61
2021/08/27 04:18:31;;;;;;;7.47;3.93;;;;;;;11.29;95.11;101607.47;2090476;28;20099;-60
2021/08/27 04:19:34;;;;;;;4.97;2.27;;;;;;;11.30;95.19;101604.78;2090560;28;20478;-59
2021/08/27 04:20:34;;;;;;;6.13;1.70;;;;;;;11.32;94.91;101602.97;2099327;28;20107;-61
2021/08/27 04:21:34;;;;;;;3.80;1.43;;;;;;;11.32;94.40;101608.19;2099462;28;20705;-61
2021/08/27 04:22:35;;;;;;;4.22;1.88;;;;;;;11.33;94.90;101604.69;2099440;28;20385;-60
2021/08/27 04:23:35;;;;;;;4.70;2.30;;;;;;;11.34;94.66;101600.31;2099378;28;20477;-60
2021/08/27 04:24:36;;;;;;;4.83;1.97;;;;;;;11.34;94.66;101605.53;2099347;28;20021;-61
2021/08/27 04:25:36;;;;;;;3.30;1.60;;;;;;;11.33;94.30;101609.06;2099334;28;20028;-61
2021/08/27 04:26:36;;;;;;;2.17;1.70;;;;;;;11.31;94.34;101606.50;2099435;28;20121;-60
2021/08/27 04:27:37;;;;;;;6.33;1.63;;;;;;;11.30;94.07;101604.78;2099410;28;20070;-61
2021/08/27 04:28:37;;;;;;;5.13;1.90;;;;;;;11.30;94.78;101604.78;2099385;28;20478;-61
2021/08/27 04:29:37;;;;;;;4.47;2.27;;;;;;;11.30;94.17;101610.00;2099461;28;20093;-60
2021/08/27 04:30:38;;;;;;;4.23;2.33;;;;;;;11.31;94.43;101606.50;2099336;28;20021;-60
2021/08/27 04:31:39;;;;;;;6.53;1.58;;;;;;;11.35;94.42;101614.25;2099382;28;20031;-60
2021/08/27 04:32:40;;;;;;;7.80;2.22;;;;;;;11.35;94.31;101609.84;2099329;28;20028;-60
2021/08/27 04:33:40;;;;;;;6.50;3.97;;;;;;;11.37;94.44;101615.91;2099231;28;20027;-60
2021/08/27 04:34:40;;;;;;;4.57;3.03;;;;;;;11.38;93.82;101614.13;2099354;28;20028;-60
2021/08/27 04:35:40;;;;;;;7.20;3.13;;;;;;;11.38;94.39;101612.38;2090381;28;20029;-61
2021/08/27 04:36:41;;;;;;;8.30;3.40;;;;;;;11.38;94.47;101616.72;2090473;28;20025;-61
2021/08/27 04:37:41;;;;;;;8.13;3.43;;;;;;;11.39;93.93;101623.69;2090279;28;20021;-61
2021/08/27 04:38:41;;;;;;;5.07;4.33;;;;;;;11.39;93.89;101619.28;2082146;28;20506;-60
2021/08/27 04:39:42;;;;;;;7.33;3.83;;;;;;;11.40;94.03;101617.56;2090385;28;20033;-60
2021/08/27 04:40:42;;;;;;;6.80;3.73;;;;;;;11.39;94.48;101613.25;2099221;28;20024;-60
2021/08/27 04:41:42;;;;;;;8.03;4.03;;;;;;;11.40;93.99;101623.63;2099298;28;20035;-61
2021/08/27 04:42:42;;;;;;;4.90;3.80;;;;;;;11.42;94.75;101619.19;2090313;28;20051;-61
2021/08/27 04:43:43;;;;;;;4.13;3.20;;;;;;;11.44;94.52;101622.63;2090396;28;20100;-62
2021/08/27 04:44:43;;;;;;;6.10;3.43;;;;;;;11.45;93.91;101621.72;2099195;28;20464;-60
2021/08/27 04:45:43;;;;;;;3.97;3.53;;;;;;;11.47;94.18;101621.66;2099129;28;20059;-61
2021/08/27 04:46:43;;;;;;;4.53;3.40;;;;;;;11.50;94.04;101621.53;2099224;28;20043;-60
2021/08/27 04:47:44;;;;;;;11.40;4.00;;;;;;;11.51;94.15;101620.66;2099194;28;20025;-60
2021/08/27 04:48:44;;;;;;;8.80;3.70;;;;;;;11.54;94.04;101625.78;2099171;28;20025;-60
2021/08/27 04:49:44;;;;;;;4.90;3.30;;;;;;;11.55;94.01;101622.25;2099303;28;20056;-60
2021/08/27 04:50:45;;;;;;;4.60;2.90;;;;;;;11.54;94.20;101625.78;2099073;28;20086;-59
2021/08/27 04:51:45;;;;;;;8.77;3.17;;;;;;;11.56;93.60;101625.72;2099182;28;20031;-61
2021/08/27 04:52:45;;;;;;;7.83;3.80;;;;;;;11.58;94.17;101621.28;2099212;28;20055;-61
2021/08/27 04:53:45;;;;;;;5.90;3.43;;;;;;;11.58;93.78;101627.41;2099214;28;20094;-61
2021/08/27 04:54:46;;;;;;;7.33;2.73;;;;;;;11.58;93.98;101630.00;2099110;28;20021;-60